Date,TemperatureHighF,TemperatureAvgF,TemperatureLowF,DewpointHighF,DewpointAvgF,DewpointLowF,HumidityHigh,HumidityAvg,HumidityLow,PressureMaxIn,PressureMinIn,WindSpeedMaxMPH,WindSpeedAvgMPH,GustSpeedMaxMPH,PrecipitationSumIn
2013-1-1,38,33,20,28,22,11,72,64,52,30.01,29.83,10,3,0,0.02
2013-1-2,28,22,13,18,13,8,85,70,58,30.19,30.00,7,2,0,0.00
2013-1-3,28,18,7,18,9,-1,83,69,56,30.22,30.07,6,2,0,0.00
2013-1-4,38,32,20,26,22,17,86,69,56,30.06,29.91,13,3,0,0.03
2013-1-5,41,32,24,27,23,20,88,69,53,30.29,29.96,11,3,0,0.00
2013-1-6,43,33,26,30,27,23,93,81,59,30.24,29.97,6,1,0,0.00
2013-1-7,39,33,22,31,26,20,91,77,58,30.41,30.05,9,2,0,0.00
2013-1-8,46,33,21,31,27,19,95,80,56,30.43,30.34,5,1,0,0.00
2013-1-9,44,33,23,36,29,22,95,86,73,30.41,30.12,7,1,0,0.00
2013-1-10,45,39,32,34,26,24,79,62,47,30.57,30.20,13,3,0,0.00
2013-1-11,36,32,27,35,29,24,97,88,72,30.55,30.16,3,0,0,0.36
2013-1-12,44,39,36,43,38,35,98,97,96,30.20,30.13,2,0,0,0.06
2013-1-13,44,40,37,44,40,36,98,98,98,30.18,30.02,2,0,0,0.01
2013-1-14,51,44,36,51,40,27,99,86,67,30.32,29.93,8,2,0,0.02
2013-1-15,37,34,32,29,27,25,81,74,65,30.36,30.25,6,2,0,0.01
2013-1-16,35,32,30,32,30,25,96,93,72,30.25,29.84,4,0,0,0.00
2013-1-17,40,35,28,32,28,17,91,76,65,30.13,29.90,7,3,0,0.28
2013-1-18,27,22,17,16,10,3,81,60,42,30.48,30.07,11,3,0,0.00
2013-1-19,44,34,20,31,24,14,83,67,54,30.40,29.91,5,1,0,0.06
2013-1-20,50,40,27,32,24,9,78,57,34,30.02,29.65,14,4,0,0.06
2013-1-21,29,25,20,23,15,9,90,66,47,30.10,29.82,6,1,0,0.00
2013-1-22,22,18,11,17,3,-5,91,53,39,30.18,29.81,13,5,0,0.00
2013-1-23,18,12,6,1,-2,-6,70,55,40,30.24,30.16,8,2,0,0.00
2013-1-24,22,12,3,3,-1,-3,79,59,39,30.37,30.17,13,3,0,0.00
2013-1-25,22,16,10,15,6,1,87,63,43,30.42,30.08,6,1,0,0.00
2013-1-26,25,18,12,15,8,4,86,67,48,30.37,30.06,12,3,0,0.00
2013-1-27,32,21,10,13,9,5,84,63,35,30.52,30.36,11,2,0,0.00
2013-1-28,33,26,18,32,22,10,95,84,68,30.52,30.01,2,0,0,0.00
2013-1-29,37,35,33,36,34,32,97,95,91,30.18,30.00,5,0,0,0.20
2013-1-30,53,42,34,53,41,33,100,98,97,30.13,29.39,5,0,0,0.08
2013-1-31,59,44,29,57,34,13,99,69,40,29.71,29.02,19,6,0,0.77
2013-2-1,31,26,22,15,11,6,65,53,38,30.19,29.71,13,4,0,0.00
2013-2-2,30,23,18,19,12,7,88,63,40,30.28,30.09,7,2,0,0.00
2013-2-3,31,23,15,20,17,13,92,79,57,30.08,29.80,5,1,0,0.04
2013-2-4,30,25,20,21,13,6,88,62,40,29.98,29.80,11,3,0,0.00
2013-2-5,29,26,21,24,21,13,91,83,70,30.02,29.93,4,1,0,0.01
2013-2-6,38,30,24,26,20,3,94,70,39,30.36,29.94,11,2,0,0.02
2013-2-7,32,24,16,17,10,2,78,55,37,30.54,30.35,6,1,0,0.00
2013-2-8,31,28,24,29,24,18,93,85,67,30.40,29.69,12,3,0,0.00
2013-2-9,28,23,16,23,14,5,93,71,46,30.34,29.77,19,8,0,0.01
2013-2-10,39,23,15,15,5,-2,79,48,20,30.49,30.34,9,3,0,0.06
2013-2-11,43,33,20,42,31,15,98,92,78,30.36,29.69,12,1,0,0.22
2013-2-12,44,39,35,38,30,26,97,71,56,29.95,29.70,12,3,0,0.03
2013-2-13,44,35,26,32,26,22,94,71,46,29.94,29.71,7,1,0,0.00
2013-2-14,45,34,26,31,27,24,95,79,47,30.01,29.73,6,1,0,0.07
2013-2-15,52,39,27,34,30,26,94,74,45,30.02,29.91,7,1,0,0.00
2013-2-16,39,32,28,33,24,17,94,73,56,29.98,29.74,10,3,0,0.04
2013-2-17,30,23,16,16,6,2,62,49,33,29.93,29.63,18,7,0,0.00
2013-2-18,35,23,15,15,8,3,74,52,32,30.23,29.93,11,3,0,0.00
2013-2-19,44,33,21,39,28,15,97,81,60,30.23,29.66,6,1,0,0.27
2013-2-20,37,30,24,31,17,10,79,59,50,29.94,29.67,21,6,0,0.00
2013-2-21,33,26,22,17,14,13,73,62,50,30.34,29.92,15,5,0,0.00
2013-2-22,38,30,22,28,22,15,83,72,56,30.43,30.30,9,2,0,0.00
2013-2-23,38,35,33,37,33,28,96,92,83,30.30,29.86,3,0,0,0.19
2013-2-24,41,36,32,37,33,25,97,87,72,29.96,29.76,9,3,0,0.00
2013-2-25,44,36,31,29,27,25,87,71,53,30.27,29.96,13,3,0,0.00
2013-2-26,43,35,26,31,28,24,93,77,54,30.34,30.02,7,1,0,0.06
2013-2-27,43,39,34,42,37,31,97,94,91,30.01,29.55,9,2,0,1.08
2013-2-28,47,39,33,39,35,32,98,87,62,29.64,29.55,6,1,0,0.02
2013-3-1,43,38,35,34,31,27,90,76,59,29.78,29.60,9,4,0,0.00
2013-3-2,38,34,29,28,26,24,82,73,65,29.78,29.70,11,4,0,0.00
2013-3-3,34,30,27,27,22,19,83,74,62,29.75,29.68,10,5,0,0.00
2013-3-4,40,32,27,25,22,20,78,68,52,29.89,29.74,13,5,0,0.00
2013-3-5,47,37,29,30,26,23,80,67,50,30.05,29.89,13,4,0,0.00
2013-3-6,40,38,36,36,31,28,88,78,68,30.03,29.95,12,3,0,0.01
2013-3-7,36,34,32,33,30,27,94,84,73,30.10,29.98,15,6,0,0.02
2013-3-8,38,34,30,31,29,25,95,83,65,30.22,30.00,13,6,19,0.13
2013-3-9,53,39,31,29,26,24,85,62,35,30.35,30.21,10,4,20,0.14
2013-3-10,52,38,25,35,30,24,95,76,48,30.41,30.30,7,1,10,0.00
2013-3-11,54,44,35,45,39,33,95,84,63,30.33,30.11,6,1,9,0.00
2013-3-12,53,49,40,52,48,37,98,94,87,30.11,29.68,14,2,19,1.00
2013-3-13,49,40,34,36,30,23,87,68,39,29.88,29.78,11,3,18,0.00
2013-3-14,35,31,27,30,17,10,83,56,42,29.93,29.84,15,5,23,0.00
2013-3-15,41,33,24,31,20,11,79,59,41,29.96,29.73,13,3,16,0.00
2013-3-16,38,33,28,29,24,17,87,71,47,29.92,29.77,9,2,14,0.00
2013-3-17,38,30,24,27,16,9,89,58,32,30.34,29.93,11,3,17,0.00
2013-3-18,35,28,20,28,15,8,93,60,36,30.45,30.11,5,1,13,0.00
2013-3-19,39,34,29,35,32,28,95,91,85,30.10,29.70,10,2,14,0.34
2013-3-20,41,33,27,31,22,18,89,64,41,29.87,29.79,14,3,20,0.10
2013-3-21,39,32,27,25,19,14,85,60,39,29.85,29.64,9,2,13,0.03
2013-3-22,39,31,23,25,20,15,75,64,49,29.86,29.71,12,3,18,0.00
2013-3-23,44,37,32,25,22,19,70,56,37,29.91,29.78,14,5,25,0.00
2013-3-24,45,36,29,28,24,19,75,61,47,29.94,29.74,11,2,17,0.00
2013-3-25,45,39,33,29,27,25,78,63,49,29.75,29.47,8,2,18,0.00
2013-3-26,49,40,31,33,28,25,79,64,47,29.86,29.60,10,3,17,0.00
2013-3-27,52,40,28,30,25,23,84,58,36,29.96,29.86,10,3,17,0.00
2013-3-28,49,41,35,37,31,26,78,68,55,30.11,29.95,10,3,15,0.00
2013-3-29,53,45,38,34,30,29,73,59,39,30.13,30.04,9,3,17,0.00
2013-3-30,57,43,32,33,28,21,88,60,26,30.16,30.06,13,1,14,0.00
2013-3-31,56,43,29,42,30,23,94,64,36,30.15,29.70,11,2,14,0.10
2013-4-1,60,45,35,46,36,13,97,73,37,29.89,29.60,15,3,23,0.01
2013-4-2,41,35,30,19,15,10,61,45,30,30.05,29.90,16,5,25,0.00
2013-4-3,45,36,30,18,15,12,58,43,29,30.29,30.05,21,5,23,0.00
2013-4-4,55,41,28,29,21,14,72,47,25,30.38,30.10,9,2,17,0.00
2013-4-5,61,46,36,31,26,19,81,49,25,30.08,29.72,14,3,21,0.00
2013-4-6,52,39,31,24,15,6,63,41,16,30.33,29.99,13,4,21,0.00
2013-4-7,57,46,31,42,33,20,90,62,39,30.32,30.02,10,3,16,0.00
2013-4-8,70,54,39,45,40,37,97,65,34,30.09,29.99,8,1,11,0.00
2013-4-9,76,62,48,52,46,42,93,62,31,30.02,29.91,19,3,25,0.00
2013-4-10,67,57,49,55,51,44,96,81,62,29.96,29.83,9,1,17,0.19
2013-4-11,58,52,46,55,46,33,97,81,61,30.09,29.81,7,2,11,0.00
2013-4-12,46,40,38,39,36,33,94,86,65,30.09,29.77,8,2,14,0.41
2013-4-13,54,46,37,40,37,35,94,74,51,29.96,29.78,6,1,11,0.07
2013-4-14,52,45,37,38,32,27,87,63,41,30.24,29.95,14,3,21,0.00
2013-4-15,60,46,35,38,33,29,83,62,39,30.40,30.25,4,1,10,0.00
2013-4-16,65,52,40,53,46,34,93,79,60,30.39,30.12,7,1,12,0.04
2013-4-17,66,55,45,53,41,35,94,62,33,30.31,30.13,16,3,19,0.01
2013-4-18,62,51,40,48,40,34,93,68,39,30.37,30.14,8,1,15,0.00
2013-4-19,71,62,52,62,58,48,98,87,72,30.13,29.66,8,2,20,0.08
2013-4-20,62,50,41,60,36,26,95,63,34,30.30,29.66,12,4,24,0.28
2013-4-21,55,42,32,30,25,20,73,53,32,30.64,30.31,11,3,17,0.00
2013-4-22,57,45,33,37,32,25,90,64,33,30.70,30.54,6,1,12,0.00
2013-4-23,48,42,36,41,36,30,90,80,74,30.54,30.14,5,2,11,0.00
2013-4-24,74,55,40,51,45,38,92,72,44,30.14,29.82,5,2,11,0.00
2013-4-25,64,53,42,51,36,24,92,54,22,30.28,29.85,10,3,20,0.00
2013-4-26,64,50,36,41,33,30,81,54,32,30.44,30.28,10,2,13,0.00
2013-4-27,68,54,39,37,32,28,73,47,23,30.44,30.28,6,2,14,0.00
2013-4-28,70,54,39,46,39,33,90,58,36,30.33,30.21,7,1,11,0.00
2013-4-29,58,54,49,48,44,37,83,69,58,30.26,30.21,3,0,7,0.00
2013-4-30,68,57,46,45,38,30,86,54,24,30.35,30.24,8,1,11,0.00
2013-5-1,71,55,38,45,37,30,79,54,25,30.50,30.35,7,1,10,0.00
2013-5-2,78,60,42,47,43,40,94,58,27,30.48,30.30,7,1,10,0.00
2013-5-3,70,58,48,45,40,34,81,52,29,30.48,30.34,4,1,9,0.00
2013-5-4,73,56,43,48,44,41,95,67,34,30.39,30.21,5,1,11,0.00
2013-5-5,69,53,41,48,42,38,93,69,32,30.32,30.20,5,1,10,0.00
2013-5-6,71,56,41,55,47,39,95,76,50,30.29,30.14,6,1,9,0.00
2013-5-7,75,61,46,58,52,45,97,76,46,30.19,30.09,9,1,13,0.00
2013-5-8,64,60,56,63,58,55,97,95,89,30.14,30.00,4,0,9,0.41
2013-5-9,63,58,54,60,56,53,97,94,83,30.03,29.89,5,0,9,0.14
2013-5-10,77,63,50,61,55,49,99,78,45,30.00,29.90,5,0,9,0.00
2013-5-11,65,62,59,63,60,57,98,94,83,29.90,29.70,3,0,9,0.27
2013-5-12,65,58,49,60,46,28,98,68,28,29.90,29.65,11,2,20,0.00
2013-5-13,53,46,38,35,32,27,83,57,41,30.11,29.90,10,2,17,0.00
2013-5-14,59,47,37,34,32,26,85,59,29,30.12,30.02,9,1,13,0.00
2013-5-15,66,50,35,55,44,32,94,81,57,30.09,29.70,8,0,10,0.04
2013-5-16,80,65,50,54,47,39,98,60,24,29.83,29.70,12,2,18,0.00
2013-5-17,68,60,50,46,43,38,80,55,37,30.23,29.84,9,2,20,0.00
2013-5-18,68,56,44,52,47,40,90,74,50,30.32,30.23,10,1,12,0.00
2013-5-19,57,55,52,56,54,49,97,95,90,30.34,30.20,3,0,6,0.28
2013-5-20,79,66,56,69,62,55,98,88,65,30.19,29.96,6,0,12,0.00
2013-5-21,86,72,59,72,66,59,99,83,58,29.98,29.81,6,1,11,0.00
2013-5-22,79,67,58,72,64,56,97,91,77,29.93,29.82,4,0,9,0.63
2013-5-23,72,67,65,70,66,64,98,97,92,29.89,29.76,4,0,9,3.08
2013-5-24,65,55,44,64,54,42,98,95,86,29.93,29.66,12,2,16,0.47
2013-5-25,48,45,43,45,42,39,95,90,75,29.95,29.87,12,4,18,0.62
2013-5-26,60,51,44,46,41,39,87,70,48,30.19,29.89,10,3,22,0.01
2013-5-27,74,58,44,50,42,38,85,57,29,30.23,30.11,8,1,15,0.00
2013-5-28,69,55,45,57,50,42,97,83,50,30.23,30.16,4,0,10,0.15
2013-5-29,79,66,57,71,63,56,98,90,74,30.16,29.99,5,1,9,0.02
2013-5-30,89,75,61,72,66,60,98,77,49,30.11,30.04,4,1,11,0.00
2013-5-31,90,76,63,73,67,62,98,77,44,30.12,29.98,8,1,9,0.00
2013-6-1,88,78,66,73,68,63,89,73,53,30.01,29.88,3,1,9,0.00
2013-6-2,85,76,69,73,69,67,94,79,63,29.90,29.73,7,1,11,0.00
2013-6-3,76,69,60,69,64,49,97,82,64,29.90,29.78,7,1,11,0.78
2013-6-4,74,61,52,53,46,43,78,61,38,30.13,29.90,7,2,13,0.00
2013-6-5,73,62,50,54,48,43,81,63,44,30.23,30.11,8,1,9,0.00
2013-6-6,69,59,49,59,54,48,96,84,63,30.18,30.05,4,0,8,0.18
2013-6-7,60,58,55,59,57,54,98,97,96,30.05,29.72,4,1,8,2.26
2013-6-8,74,63,54,65,58,53,97,85,65,30.06,29.64,6,2,16,0.94
2013-6-9,79,66,55,64,58,54,98,79,50,30.18,30.06,4,1,9,0.00
2013-6-10,70,62,58,65,60,56,98,94,84,30.19,29.91,3,0,9,1.04
2013-6-11,76,66,59,69,62,56,99,89,72,29.90,29.59,6,1,16,0.61
2013-6-12,74,65,56,58,55,52,91,71,51,29.86,29.66,8,2,20,0.00
2013-6-13,58,56,52,57,54,51,97,96,91,29.85,29.59,5,1,9,1.73
2013-6-14,70,59,51,65,56,50,97,89,68,29.87,29.60,6,1,6,0.62
2013-6-15,79,65,54,60,55,50,97,73,39,30.01,29.88,7,1,12,0.00
2013-6-16,77,65,51,65,58,49,94,78,53,29.99,29.75,8,1,13,0.00
2013-6-17,84,70,59,69,62,58,98,79,44,29.93,29.82,8,1,15,0.00
2013-6-18,79,66,58,71,62,57,97,90,69,29.93,29.82,4,0,8,0.36
2013-6-19,74,63,54,60,53,45,96,73,39,30.19,29.91,4,1,9,0.00
2013-6-20,77,63,48,64,54,46,93,74,47,30.28,30.19,3,0,8,0.00
2013-6-21,81,69,59,67,60,55,88,73,57,30.29,30.21,5,1,9,0.00
2013-6-22,81,71,58,67,61,56,92,72,53,30.26,30.12,6,1,11,0.00
2013-6-23,87,75,64,72,66,57,91,74,51,30.18,30.04,7,1,12,0.00
2013-6-24,89,76,67,76,70,65,97,81,58,30.06,29.92,8,1,15,0.71
2013-6-25,87,74,65,77,70,64,99,87,58,30.00,29.78,6,1,12,0.01
2013-6-26,78,74,68,72,70,67,96,86,77,29.84,29.76,5,1,9,0.01
2013-6-27,79,71,66,73,69,65,98,94,80,29.82,29.59,5,0,8,0.49
2013-6-28,82,74,69,73,71,69,98,89,70,29.58,29.46,8,1,10,0.19
2013-6-29,82,73,66,72,68,65,98,84,59,29.71,29.49,7,1,11,0.00
2013-6-30,82,74,68,75,71,67,97,91,78,29.92,29.71,4,0,11,0.00
2013-7-1,74,72,70,73,71,69,98,96,91,30.06,29.91,6,0,8,0.43
2013-7-2,81,74,71,75,73,71,98,94,82,30.17,30.06,3,0,8,0.03
2013-7-3,83,77,72,76,72,70,95,87,75,30.23,30.16,8,1,16,0.00
2013-7-4,88,80,73,78,74,71,97,84,65,30.23,30.13,7,1,10,0.00
2013-7-5,90,81,73,78,74,71,93,80,62,30.20,30.07,6,1,11,0.00
2013-7-6,89,80,74,77,73,72,92,80,61,30.11,30.01,7,1,11,0.00
2013-7-7,91,80,72,79,75,70,96,84,60,30.05,29.91,7,1,10,0.00
2013-7-8,87,78,71,74,69,66,88,75,60,30.03,29.94,7,1,12,0.00
2013-7-9,84,74,67,74,70,65,97,87,68,30.07,30.00,6,0,7,0.01
2013-7-10,83,75,71,78,73,70,97,93,79,30.01,29.79,6,0,10,0.55
2013-7-11,81,74,67,73,70,63,98,88,67,29.94,29.79,4,0,9,0.01
2013-7-12,78,71,65,70,65,60,90,80,68,30.16,29.93,4,1,8,0.02
2013-7-13,75,70,65,72,68,62,96,92,88,30.30,30.16,3,0,5,0.05
2013-7-14,90,79,72,79,74,71,98,86,66,30.32,30.22,6,1,11,0.00
2013-7-15,89,80,74,76,73,70,94,81,58,30.23,30.13,5,1,8,0.00
2013-7-16,90,80,73,74,70,66,85,70,48,30.20,30.13,4,1,8,0.00
2013-7-17,90,80,70,78,72,68,94,78,52,30.20,30.04,4,0,9,0.00
2013-7-18,92,83,74,80,74,71,91,77,57,30.05,29.94,5,1,11,0.00
2013-7-19,93,83,73,78,75,72,96,77,57,29.96,29.76,12,1,12,0.00
2013-7-20,89,80,72,78,74,69,92,81,59,29.85,29.70,5,1,10,0.15
2013-7-21,84,75,68,71,67,64,92,78,57,29.98,29.85,4,0,8,0.00
2013-7-22,81,73,65,74,70,64,96,89,78,29.98,29.83,7,0,7,0.05
2013-7-23,84,75,72,74,72,71,98,91,69,29.82,29.55,6,0,11,1.16
2013-7-24,77,72,62,71,66,54,97,81,65,29.96,29.61,9,1,10,0.00
2013-7-25,66,62,58,61,56,52,92,80,73,30.09,29.96,4,1,8,0.02
2013-7-26,78,68,62,68,62,60,95,82,61,30.06,29.99,4,1,9,0.00
2013-7-27,81,70,61,68,63,60,98,82,54,30.06,29.97,4,0,9,0.00
2013-7-28,78,69,63,69,66,62,97,90,75,30.01,29.94,3,0,9,0.07
2013-7-29,81,72,65,69,66,58,98,81,54,30.09,29.97,7,1,12,0.00
2013-7-30,76,68,59,64,59,55,92,74,58,30.16,30.09,4,1,10,0.00
2013-7-31,78,68,59,67,60,56,95,78,46,30.17,30.05,4,0,8,0.00
2013-8-1,73,65,62,67,64,61,98,95,81,30.06,29.85,3,0,10,0.37
2013-8-2,79,70,64,68,64,60,98,82,53,29.90,29.80,8,1,12,0.03
2013-8-3,77,68,63,69,64,59,95,85,72,29.90,29.82,4,1,11,0.01
2013-8-4,75,65,56,63,58,54,96,80,53,29.98,29.84,5,1,13,0.02
2013-8-5,74,63,55,57,52,47,92,70,41,30.06,29.96,6,1,11,0.00
2013-8-6,77,64,52,63,56,49,94,77,55,30.14,30.07,4,0,9,0.00
2013-8-7,76,66,57,66,62,56,97,85,65,30.18,30.08,3,0,9,0.00
2013-8-8,80,73,69,73,70,66,95,89,75,30.08,30.01,5,1,7,0.00
2013-8-9,78,73,71,76,72,70,98,96,90,30.02,29.78,5,1,13,2.54
2013-8-10,80,71,61,70,64,57,98,80,48,30.06,29.85,7,1,17,0.01
2013-8-11,77,66,55,64,57,52,91,75,51,30.13,30.03,4,0,8,0.00
2013-8-12,80,69,61,66,62,58,97,78,51,30.05,29.93,4,0,7,0.00
2013-8-13,72,68,64,69,66,61,98,95,87,29.94,29.70,2,0,5,0.21
2013-8-14,71,64,56,64,55,51,96,75,54,30.04,29.75,9,2,18,0.00
2013-8-15,74,61,51,61,54,50,96,79,48,30.16,30.04,4,0,11,0.00
2013-8-16,76,63,53,62,56,51,97,80,48,30.22,30.14,3,0,8,0.00
2013-8-17,78,66,55,67,60,54,97,82,52,30.30,30.22,3,0,6,0.00
2013-8-18,74,66,59,68,62,58,96,88,69,30.28,30.14,2,0,4,0.00
2013-8-19,76,68,60,67,63,58,96,84,63,30.14,30.02,5,0,8,0.00
2013-8-20,82,71,62,69,64,60,97,80,50,30.14,30.04,8,1,10,0.00
2013-8-21,84,71,61,71,64,60,98,82,51,30.19,30.05,6,0,11,0.00
2013-8-22,77,70,64,72,68,63,98,92,80,30.07,29.87,5,0,9,0.20
2013-8-23,77,70,60,69,62,56,95,76,54,30.13,29.88,4,1,12,0.00
2013-8-24,76,65,56,62,55,50,92,73,50,30.36,30.14,5,1,8,0.00
2013-8-25,79,65,53,62,56,52,97,77,46,30.41,30.22,6,0,9,0.00
2013-8-26,75,69,63,69,64,58,96,84,75,30.23,29.92,6,1,10,0.08
2013-8-27,81,72,67,71,68,66,98,89,67,29.91,29.82,6,1,9,0.58
2013-8-28,84,71,64,73,68,63,98,89,64,29.92,29.84,7,0,14,0.00
2013-8-29,76,70,65,69,66,64,97,89,75,30.04,29.92,3,0,5,0.01
2013-8-30,81,72,66,72,67,63,95,86,66,30.04,29.85,5,1,11,0.00
2013-8-31,80,75,72,75,72,69,96,89,81,29.85,29.78,5,1,10,0.00
2013-9-1,79,74,71,76,73,69,98,95,85,29.85,29.80,3,0,6,0.24
2013-9-2,78,73,70,74,72,68,98,94,85,29.83,29.69,3,0,9,0.05
2013-9-3,75,68,62,68,64,59,97,88,68,29.88,29.72,3,0,10,0.00
2013-9-4,78,66,57,64,59,56,96,79,51,29.99,29.87,6,1,12,0.00
2013-9-5,70,63,54,61,54,44,94,73,43,30.17,29.91,9,1,10,0.00
2013-9-6,67,56,48,51,46,43,88,70,43,30.27,30.14,8,1,9,0.00
2013-9-7,75,60,46,61,53,44,97,78,46,30.15,29.89,4,0,9,0.00
2013-9-8,74,66,56,64,55,46,88,69,41,30.10,29.82,6,1,13,0.00
2013-9-9,70,58,45,56,49,43,93,75,51,30.26,30.11,4,0,11,0.00
2013-9-10,78,69,58,74,67,56,98,92,83,30.19,30.05,7,1,14,0.09
2013-9-11,91,79,69,80,74,68,98,84,63,30.10,29.96,5,1,10,0.00
2013-9-12,83,73,67,76,70,66,97,91,74,29.98,29.68,6,1,11,0.60
2013-9-13,72,66,56,67,61,49,98,86,69,29.84,29.63,9,1,10,0.04
2013-9-14,64,56,49,54,49,47,91,78,64,30.13,29.84,8,1,10,0.00
2013-9-15,69,55,45,55,48,43,96,79,44,30.22,30.10,5,0,8,0.00
2013-9-16,66,58,51,56,53,46,94,83,65,30.27,30.05,4,1,12,0.00
2013-9-17,64,51,42,48,42,38,93,75,42,30.45,30.28,4,0,8,0.00
2013-9-18,70,54,42,53,46,41,98,79,44,30.38,30.19,3,0,8,0.00
2013-9-19,74,58,45,59,51,44,98,82,45,30.21,30.07,3,0,6,0.00
2013-9-20,76,60,48,61,55,47,98,84,51,30.11,30.00,3,0,5,0.00
2013-9-21,72,64,55,67,62,54,97,91,82,30.03,29.66,9,1,12,0.24
2013-9-22,67,60,52,66,54,42,97,81,62,29.91,29.64,6,1,15,0.78
2013-9-23,60,52,43,47,43,39,92,72,54,30.07,29.91,9,2,14,0.00
2013-9-24,68,53,42,53,45,39,92,75,46,30.07,29.88,8,1,13,0.00
2013-9-25,68,57,48,56,49,45,95,76,53,29.97,29.89,4,1,9,0.00
2013-9-26,66,58,50,55,52,49,95,83,60,30.13,29.97,6,0,7,0.00
2013-9-27,62,55,48,56,52,47,97,89,73,30.30,30.13,2,0,5,0.00
2013-9-28,72,58,49,57,52,48,97,83,54,30.36,30.27,3,0,7,0.00
2013-9-29,69,56,48,58,52,47,100,87,62,30.27,30.10,4,0,8,0.00
2013-9-30,70,56,46,59,51,45,98,85,55,30.12,29.98,8,0,8,0.00
2013-10-1,75,60,49,62,55,48,98,85,55,30.02,29.91,4,0,8,0.00
2013-10-2,79,63,52,67,58,51,98,86,62,30.02,29.91,8,1,12,0.00
2013-10-3,74,61,50,60,54,48,95,80,43,30.14,30.02,3,0,7,0.00
2013-10-4,80,66,56,69,61,55,97,86,64,30.09,29.98,5,0,11,0.00
2013-10-5,75,66,61,67,62,59,95,89,76,30.11,30.04,2,0,7,0.18
2013-10-6,65,61,59,64,61,58,98,97,96,30.15,30.07,3,0,6,0.51
2013-10-7,71,64,57,69,63,53,99,96,88,30.07,29.77,5,1,20,0.59
2013-10-8,63,54,47,54,46,42,95,76,51,30.38,29.97,7,1,11,0.01
2013-10-9,62,52,45,51,46,42,94,80,55,30.46,30.35,2,0,8,0.00
2013-10-10,60,54,48,56,50,45,94,86,81,30.35,30.15,1,0,3,0.00
2013-10-11,68,60,54,61,55,48,92,82,69,30.15,30.07,4,0,8,0.00
2013-10-12,70,58,49,58,52,46,91,79,57,30.34,30.13,5,1,10,0.00
2013-10-13,64,55,47,52,50,46,95,82,63,30.42,30.33,3,0,7,0.00
2013-10-14,66,52,43,53,48,42,98,86,59,30.40,30.25,3,0,5,0.00
2013-10-15,71,56,47,58,50,45,98,82,59,30.29,30.14,4,0,8,0.00
2013-10-16,62,55,47,56,51,45,96,88,74,30.15,29.94,3,0,6,0.00
2013-10-17,74,64,57,61,59,56,96,85,57,29.93,29.69,5,1,9,0.00
2013-10-18,66,59,46,62,49,42,96,73,46,29.98,29.66,8,2,18,0.01
2013-10-19,64,52,42,53,45,40,95,79,47,30.00,29.75,4,0,11,0.06
2013-10-20,60,52,43,53,42,37,95,72,42,30.07,29.75,14,2,19,0.02
2013-10-21,65,50,39,46,41,38,97,75,40,30.16,30.00,7,1,11,0.00
2013-10-22,64,51,43,52,46,40,98,84,61,30.00,29.75,5,0,13,0.00
2013-10-23,53,44,36,40,37,32,95,76,46,29.83,29.63,4,1,11,0.00
2013-10-24,52,44,37,38,32,28,87,66,42,29.97,29.74,8,2,18,0.00
2013-10-25,50,42,36,35,32,30,85,69,51,30.22,29.97,9,1,19,0.00
2013-10-26,53,43,32,36,33,31,96,71,43,30.21,29.90,10,1,19,0.00
2013-10-27,56,47,39,38,34,31,79,63,42,30.12,29.85,11,2,18,0.00
2013-10-28,59,45,33,37,34,31,92,68,43,30.35,30.11,13,1,16,0.00
2013-10-29,50,42,35,34,30,27,83,65,45,30.45,30.35,5,1,9,0.00
2013-10-30,52,43,35,43,36,30,96,79,65,30.38,30.21,2,0,3,0.00
2013-10-31,61,50,38,59,49,37,98,95,90,30.26,29.82,4,0,8,0.24
2013-11-1,67,60,50,63,56,49,98,87,62,29.81,29.52,12,2,29,0.25
2013-11-2,66,52,44,50,46,42,97,80,48,29.79,29.62,6,1,13,0.00
2013-11-3,47,40,31,44,32,20,92,74,60,30.47,29.79,11,3,21,0.01
2013-11-4,45,34,28,25,21,17,78,60,32,30.70,30.48,8,1,11,0.00
2013-11-5,53,41,30,40,33,24,90,74,58,30.71,30.52,6,0,10,0.00
2013-11-6,58,49,37,50,44,36,98,83,64,30.52,30.08,4,1,8,0.00
2013-11-7,60,52,37,57,49,34,93,89,76,30.07,29.73,10,2,14,0.14
2013-11-8,46,39,32,35,31,28,92,72,51,30.18,29.90,9,2,17,0.00
2013-11-9,48,40,32,35,30,27,89,70,46,30.28,30.02,6,1,12,0.00
2013-11-10,56,46,40,41,36,31,84,70,48,30.01,29.80,15,3,21,0.02
2013-11-11,52,45,35,34,31,29,83,59,42,30.18,29.95,15,2,18,0.00
2013-11-12,49,34,27,38,26,19,92,74,56,30.28,29.94,10,3,18,0.08
2013-11-13,36,29,24,21,18,15,77,65,42,30.38,30.26,15,3,15,0.00
2013-11-14,52,40,29,26,21,18,75,48,27,30.25,30.13,14,3,16,0.00
2013-11-15,58,41,30,32,26,21,83,58,27,30.25,30.16,4,0,7,0.00
2013-11-16,60,46,35,41,36,28,95,72,38,30.34,30.24,8,1,16,0.00
2013-11-17,59,50,39,58,50,38,98,97,95,30.30,29.80,6,1,8,0.06
2013-11-18,63,57,47,60,43,28,96,63,37,29.79,29.58,14,3,19,0.22
2013-11-19,47,40,32,31,26,21,67,59,48,30.36,29.75,14,6,27,0.00
2013-11-20,41,32,25,21,20,18,80,62,40,30.65,30.36,9,3,19,0.00
2013-11-21,49,36,23,37,27,18,89,73,51,30.67,30.42,5,0,7,0.00
2013-11-22,53,46,41,50,44,38,97,92,83,30.41,29.89,7,1,13,0.16
2013-11-23,52,40,28,47,27,11,84,61,46,30.04,29.89,11,4,21,0.00
2013-11-24,28,24,22,13,7,0,64,49,30,30.33,29.96,20,7,26,0.00
2013-11-25,34,26,15,18,13,9,82,61,42,30.48,30.33,8,2,15,0.00
2013-11-26,38,34,31,34,24,15,96,70,52,30.35,29.91,5,1,8,0.45
2013-11-27,53,43,34,53,41,28,98,94,80,29.88,29.34,14,4,19,2.57
2013-11-28,33,28,23,26,17,13,78,63,48,30.49,29.68,15,4,26,0.00
2013-11-29,34,28,24,23,20,16,83,72,56,30.76,30.48,9,1,12,0.00
2013-11-30,33,26,17,24,16,11,86,68,41,30.80,30.42,4,0,9,0.00
2013-12-1,45,36,31,37,31,24,92,82,72,30.42,30.05,3,0,4,0.00
2013-12-2,42,34,29,37,31,28,96,91,78,30.04,29.92,3,0,3,0.00
2013-12-3,48,35,28,39,32,27,97,89,66,30.04,29.90,4,0,6,0.00
2013-12-4,50,37,29,38,33,28,96,85,63,30.19,30.03,2,0,5,0.01
2013-12-5,53,45,39,52,44,36,99,96,90,30.19,29.97,2,0,5,0.05
2013-12-6,52,43,34,52,41,32,99,93,79,30.17,29.89,8,2,13,0.45
2013-12-7,37,33,27,32,28,20,95,85,69,30.53,30.12,11,2,17,0.04
2013-12-8,31,28,22,25,21,18,89,77,70,30.63,30.46,4,1,9,0.00
2013-12-9,36,32,27,35,30,25,97,95,89,30.45,29.97,6,1,8,0.09
2013-12-10,35,30,20,33,28,18,97,91,82,30.09,29.85,6,1,17,0.02
2013-12-11,30,25,19,22,18,15,86,76,65,30.29,30.09,10,2,16,0.01
2013-12-12,26,20,12,18,12,8,86,71,51,30.36,30.14,9,2,12,0.00
2013-12-13,32,25,19,20,14,7,81,64,56,30.39,30.10,11,3,19,0.00
2013-12-14,22,19,16,20,15,12,91,83,66,30.55,29.98,6,2,12,0.00
2013-12-15,34,29,23,31,26,20,95,88,72,29.95,29.54,8,2,14,0.00
2013-12-16,29,23,10,23,12,6,84,66,50,30.24,29.80,15,3,22,0.00
2013-12-17,21,16,6,18,13,4,91,88,84,30.27,29.98,4,1,8,0.00
2013-12-18,33,26,19,24,21,16,88,80,65,30.16,29.96,9,2,12,0.00
2013-12-19,45,31,20,30,25,17,91,78,50,30.18,30.02,8,1,14,0.14
2013-12-20,49,38,30,35,32,28,95,79,56,30.13,29.98,6,0,9,0.39
2013-12-21,54,44,37,47,40,34,96,84,71,30.01,29.90,8,1,12,0.04
2013-12-22,65,58,41,62,55,40,99,90,77,29.97,29.78,10,2,15,0.02
2013-12-23,56,49,36,55,48,32,98,95,83,30.15,29.93,9,1,15,0.62
2013-12-24,36,31,24,31,24,12,86,75,60,30.32,30.11,9,4,16,0.00
2013-12-25,25,20,16,17,10,6,79,65,50,30.55,30.33,11,2,17,0.00
2013-12-26,33,27,22,27,23,16,92,83,77,30.47,30.17,6,1,9,0.01
2013-12-27,37,28,22,25,22,19,94,78,52,30.35,30.26,7,1,13,0.00
2013-12-28,49,34,24,32,26,22,93,76,47,30.28,30.07,5,1,15,0.00
2013-12-29,40,36,32,39,34,28,97,91,83,30.07,29.48,11,2,17,0.92
2013-12-30,41,30,17,36,25,10,97,81,64,30.22,29.69,11,3,16,0.00
2013-12-31,28,22,15,23,14,9,82,71,56,30.27,30.07,10,1,13,0.00
2014-1-1,29,24,18,21,15,10,85,69,55,30.42,30.27,10,2,18,0.00
2014-1-2,25,20,12,21,17,9,89,86,82,30.32,29.77,9,2,12,0.00